createdAt,value
2024-02-19T00:02:15.970Z,102635.94
2024-02-19T00:04:42.561Z,102634.25
2024-02-19T00:07:09.177Z,102636.78
2024-02-19T00:09:35.832Z,102630.56
2024-02-19T00:12:02.424Z,102629.72
2024-02-19T00:14:28.948Z,102635.09
2024-02-19T00:16:55.413Z,102638.81
2024-02-19T00:19:22.626Z,102646.72
2024-02-19T00:21:49.343Z,102642.53
2024-02-19T00:24:15.819Z,102644.56
2024-02-19T00:26:42.238Z,102657.19
2024-02-19T00:29:08.917Z,102652.81
2024-02-19T00:31:35.593Z,102658.22
2024-02-19T00:34:02.316Z,102669.16
2024-02-19T00:36:29.355Z,102656.53
2024-02-19T00:38:55.799Z,102663.09
2024-02-19T00:41:23.192Z,102653.16
2024-02-19T00:43:49.996Z,102651.63
2024-02-19T00:46:16.879Z,102659.69
2024-02-19T00:48:43.725Z,102648.91
2024-02-19T00:51:10.484Z,102650.94
2024-02-19T00:53:40.415Z,102656.34
2024-02-19T00:56:07.529Z,102659.03
2024-02-19T00:58:33.955Z,102656.34
2024-02-19T01:01:00.532Z,102657.34
2024-02-19T01:03:27.493Z,102659.22
2024-02-19T01:05:54.000Z,102655.66
2024-02-19T01:08:20.524Z,102665.59
2024-02-19T01:10:47.165Z,102661.91
2024-02-19T01:13:14.189Z,102662.06
2024-02-19T01:15:40.806Z,102672.84
2024-02-19T01:18:07.396Z,102671.19
2024-02-19T01:20:33.918Z,102673.69
2024-02-19T01:23:00.575Z,102673.19
2024-02-19T01:25:27.219Z,102677.56
2024-02-19T01:27:53.753Z,102675.72
2024-02-19T01:30:20.296Z,102677.56
2024-02-19T01:32:46.822Z,102681.28
2024-02-19T01:35:13.451Z,102691.91
2024-02-19T01:37:41.080Z,102689.38
2024-02-19T01:40:10.231Z,102682.97
2024-02-19T01:42:36.982Z,102667.81
2024-02-19T01:45:05.660Z,102667.63
2024-02-19T01:47:32.589Z,102657.03
2024-02-19T01:49:59.634Z,102658.72
2024-02-19T01:52:26.593Z,102651.63
2024-02-19T01:54:53.868Z,102655.34
2024-02-19T01:57:21.185Z,102648.25
2024-02-19T01:59:49.017Z,102658.22
2024-02-19T02:02:17.657Z,102664.44
2024-02-19T02:04:44.078Z,102661.91
2024-02-19T02:07:11.005Z,102666.63
2024-02-19T02:09:37.947Z,102665.75
2024-02-19T02:12:04.782Z,102676.53
2024-02-19T02:14:31.293Z,102682.28
2024-02-19T02:16:57.801Z,102684.97
2024-02-19T02:19:24.390Z,102690.38
2024-02-19T02:21:51.028Z,102689.53
2024-02-19T02:24:17.535Z,102688.69
2024-02-19T02:26:44.080Z,102689.53
2024-02-19T02:29:10.578Z,102687.00
2024-02-19T02:31:37.218Z,102687.84
2024-02-19T02:34:05.150Z,102687.00
2024-02-19T02:36:31.763Z,102679.06
2024-02-19T02:38:58.203Z,102672.84
2024-02-19T02:41:24.697Z,102675.53
2024-02-19T02:43:51.287Z,102673.69
2024-02-19T02:46:17.839Z,102678.06
2024-02-19T02:48:44.510Z,102679.91
2024-02-19T02:51:11.061Z,102689.53
2024-02-19T02:53:37.605Z,102681.59
2024-02-19T02:56:04.146Z,102688.84
2024-02-19T02:58:30.699Z,102683.28
2024-02-19T03:00:57.224Z,102693.06
2024-02-19T03:03:23.775Z,102673.50
2024-02-19T03:05:50.262Z,102670.81
2024-02-19T03:08:16.724Z,102665.44
2024-02-19T03:10:44.414Z,102675.19
2024-02-19T03:13:11.095Z,102684.31
2024-02-19T03:15:37.652Z,102679.06
2024-02-19T03:18:05.482Z,102682.63
2024-02-19T03:20:32.227Z,102673.69
2024-02-19T03:22:58.706Z,102676.22
2024-02-19T03:25:25.237Z,102679.91
2024-02-19T03:27:52.886Z,102678.06
2024-02-19T03:30:19.488Z,102681.78
2024-02-19T03:32:46.161Z,102677.91
2024-02-19T03:35:13.236Z,102678.91
2024-02-19T03:37:39.701Z,102679.75
2024-02-19T03:40:09.910Z,102678.06
2024-02-19T03:42:36.720Z,102673.50
2024-02-19T03:45:04.677Z,102686.16
2024-02-19T03:47:31.624Z,102681.78
2024-02-19T03:49:58.423Z,102682.63
2024-02-19T03:52:25.025Z,102684.31
2024-02-19T03:54:51.646Z,102687.00
2024-02-19T03:57:18.242Z,102687.00
2024-02-19T03:59:44.823Z,102681.59
2024-02-19T04:02:11.342Z,102696.09
2024-02-19T04:04:37.874Z,102679.91
2024-02-19T04:07:04.592Z,102672.84
2024-02-19T04:09:31.162Z,102676.38
2024-02-19T04:11:57.665Z,102672.84
2024-02-19T04:14:26.023Z,102667.44
2024-02-19T04:16:52.501Z,102667.63
2024-02-19T04:19:19.116Z,102656.00
2024-02-19T04:21:46.505Z,102661.38
2024-02-19T04:24:13.522Z,102669.47
2024-02-19T04:26:40.355Z,102669.47
2024-02-19T04:29:08.481Z,102666.78
2024-02-19T04:31:35.063Z,102662.41
2024-02-19T04:34:01.752Z,102667.63
2024-02-19T04:36:28.411Z,102659.03
2024-02-19T04:38:54.936Z,102657.34
2024-02-19T04:41:21.458Z,102641.19
2024-02-19T04:43:47.903Z,102643.19
2024-02-19T04:46:14.485Z,102636.09
2024-02-19T04:48:41.095Z,102639.81
2024-02-19T04:51:07.703Z,102653.97
2024-02-19T04:53:34.502Z,102658.50
2024-02-19T04:56:01.044Z,102670.16
2024-02-19T04:58:27.552Z,102677.22
2024-02-19T05:00:54.093Z,102668.13
2024-02-19T05:03:20.616Z,102675.22
2024-02-19T05:05:47.069Z,102676.03
2024-02-19T05:08:13.719Z,102666.28
2024-02-19T05:10:40.272Z,102672.34
2024-02-19T05:13:06.863Z,102671.50
2024-02-19T05:15:33.527Z,102673.34
2024-02-19T05:18:00.071Z,102669.81
2024-02-19T05:20:26.509Z,102666.09
2024-02-19T05:22:53.004Z,102660.72
2024-02-19T05:25:19.883Z,102651.78
2024-02-19T05:27:46.583Z,102663.41
2024-02-19T05:30:17.437Z,102660.72
2024-02-19T05:32:43.969Z,102660.72
2024-02-19T05:35:10.924Z,102662.41
2024-02-19T05:37:37.771Z,102657.00
2024-02-19T05:40:04.675Z,102654.16
2024-02-19T05:42:31.173Z,102651.63
2024-02-19T05:44:57.609Z,102650.78
2024-02-19T05:47:25.481Z,102646.41
2024-02-19T05:49:52.124Z,102656.34
2024-02-19T05:52:18.911Z,102657.19
2024-02-19T05:54:45.577Z,102649.25
2024-02-19T05:57:12.209Z,102657.34
2024-02-19T05:59:38.728Z,102647.41
2024-02-19T06:02:05.400Z,102649.25
2024-02-19T06:04:32.219Z,102656.34
2024-02-19T06:07:00.506Z,102662.56
2024-02-19T06:09:27.118Z,102662.41
2024-02-19T06:11:54.728Z,102654.31
2024-02-19T06:14:21.203Z,102653.31
2024-02-19T06:16:47.743Z,102650.44
2024-02-19T06:19:16.592Z,102664.09
2024-02-19T06:24:09.566Z,102660.22
2024-02-19T06:26:36.035Z,102651.28
2024-02-19T06:29:04.297Z,102654.66
2024-02-19T06:31:30.820Z,102651.94
2024-02-19T06:33:57.574Z,102648.25
2024-02-19T06:36:24.172Z,102648.25
2024-02-19T06:38:51.257Z,102643.53
2024-02-19T06:41:17.757Z,102643.53
2024-02-19T06:43:44.260Z,102638.13
2024-02-19T06:46:13.013Z,102641.50
2024-02-19T06:48:42.855Z,102639.69
2024-02-19T06:51:09.443Z,102634.13
2024-02-19T06:53:36.068Z,102646.75
2024-02-19T06:56:02.629Z,102642.19
2024-02-19T06:58:29.178Z,102643.72
2024-02-19T07:00:55.803Z,102642.88
2024-02-19T07:03:22.316Z,102648.25
2024-02-19T07:05:48.924Z,102648.25
2024-02-19T07:08:15.616Z,102653.31
2024-02-19T07:10:42.361Z,102650.63
2024-02-19T07:13:08.964Z,102655.00
2024-02-19T07:15:35.527Z,102653.97
2024-02-19T07:18:02.121Z,102650.94
2024-02-19T07:20:28.713Z,102653.47
2024-02-19T07:22:55.172Z,102655.16
2024-02-19T07:25:22.398Z,102658.38
2024-02-19T07:27:49.494Z,102650.13
2024-02-19T07:30:16.956Z,102664.09
2024-02-19T07:32:43.671Z,102658.38
2024-02-19T07:35:10.472Z,102661.72
2024-02-19T07:37:37.079Z,102646.22
2024-02-19T07:40:04.336Z,102649.44
2024-02-19T07:42:31.015Z,102643.69
2024-02-19T07:44:57.509Z,102644.03
2024-02-19T07:47:24.001Z,102645.34
2024-02-19T07:49:50.503Z,102644.88
2024-02-19T07:52:17.207Z,102649.56
2024-02-19T07:54:43.833Z,102658.00
2024-02-19T07:57:10.295Z,102655.66
2024-02-19T07:59:37.208Z,102644.50
2024-02-19T08:02:04.059Z,102644.16
2024-02-19T08:04:30.997Z,102637.56
2024-02-19T08:07:00.927Z,102649.38
2024-02-19T08:09:28.168Z,102653.41
2024-02-19T08:11:54.839Z,102659.97
2024-02-19T08:14:21.356Z,102656.41
2024-02-19T08:16:50.091Z,102662.31
2024-02-19T08:19:17.099Z,102663.97
2024-02-19T08:21:43.865Z,102662.44
2024-02-19T08:24:10.625Z,102666.66
2024-02-19T08:26:37.164Z,102672.19
2024-02-19T08:29:05.024Z,102664.56
2024-02-19T08:31:31.637Z,102671.16
2024-02-19T08:33:58.591Z,102676.34
2024-02-19T08:36:25.206Z,102679.38
2024-02-19T08:38:54.239Z,102671.56
2024-02-19T08:41:21.328Z,102674.63
2024-02-19T08:43:48.449Z,102675.66
2024-02-19T08:46:16.603Z,102686.47
2024-02-19T08:48:43.831Z,102678.00
2024-02-19T08:51:10.490Z,102673.81
2024-02-19T08:53:36.928Z,102676.03
2024-02-19T08:56:03.894Z,102674.16
2024-02-19T08:58:32.120Z,102670.81
2024-02-19T09:01:00.432Z,102670.81
2024-02-19T09:03:27.576Z,102679.75
2024-02-19T09:05:54.225Z,102666.91
2024-02-19T09:08:20.786Z,102670.09
2024-02-19T09:10:47.332Z,102674.28
2024-02-19T09:13:13.985Z,102684.78
2024-02-19T09:15:40.538Z,102674.44
2024-02-19T09:18:07.469Z,102669.53
2024-02-19T09:20:34.998Z,102678.94
2024-02-19T09:23:01.782Z,102671.34
2024-02-19T09:25:28.616Z,102677.91
2024-02-19T09:27:55.467Z,102670.44
2024-02-19T09:30:22.230Z,102674.47
2024-02-19T09:32:48.795Z,102684.25
2024-02-19T09:35:17.259Z,102675.97
2024-02-19T09:37:44.165Z,102673.59
2024-02-19T09:40:14.254Z,102668.00
2024-02-19T09:42:41.163Z,102668.47
2024-02-19T09:45:09.725Z,102669.09
2024-02-19T09:47:39.680Z,102669.50
2024-02-19T09:50:10.212Z,102676.25
2024-02-19T09:52:37.340Z,102660.31
2024-02-19T09:55:04.362Z,102675.34
2024-02-19T09:57:30.988Z,102652.84
2024-02-19T10:00:03.825Z,102654.16
2024-02-19T10:02:33.099Z,102660.06
2024-02-19T10:05:00.589Z,102663.91
2024-02-19T10:07:27.541Z,102662.22
2024-02-19T10:09:54.314Z,102663.06
2024-02-19T10:12:20.959Z,102658.88
2024-02-19T10:14:47.499Z,102660.06
2024-02-19T10:17:20.932Z,102659.56
2024-02-19T10:19:48.397Z,102656.88
2024-02-19T10:22:18.059Z,102647.91
2024-02-19T10:24:44.746Z,102645.38
2024-02-19T10:27:11.410Z,102643.34
2024-02-19T10:29:37.893Z,102643.84
2024-02-19T10:32:04.771Z,102643.84
2024-02-19T10:34:31.352Z,102645.16
2024-02-19T10:36:57.892Z,102638.91
2024-02-19T10:39:24.964Z,102631.44
2024-02-19T10:41:51.644Z,102623.31
2024-02-19T10:44:18.302Z,102626.41
2024-02-19T10:46:45.116Z,102629.75
2024-02-19T10:49:11.807Z,102633.13
2024-02-19T10:51:40.694Z,102619.59
2024-02-19T10:54:07.424Z,102631.53
2024-02-19T10:56:36.906Z,102623.25
2024-02-19T10:59:04.087Z,102617.34
2024-02-19T11:01:48.199Z,102614.44
2024-02-19T11:04:18.371Z,102617.47
2024-02-19T11:06:58.865Z,102606.63
2024-02-19T11:09:32.958Z,102606.63
2024-02-19T11:12:01.362Z,102603.28
2024-02-19T11:14:36.813Z,102598.34
2024-02-19T11:17:04.138Z,102600.00
2024-02-19T11:19:39.323Z,102588.16
2024-02-19T11:22:12.678Z,102587.97
2024-02-19T11:24:41.397Z,102587.97
2024-02-19T11:27:08.750Z,102587.13
2024-02-19T11:29:43.668Z,102576.13
2024-02-19T11:32:19.357Z,102577.78
2024-02-19T11:34:46.988Z,102574.94
2024-02-19T11:37:14.961Z,102573.06
2024-02-19T11:39:43.592Z,102568.16
2024-02-19T11:42:13.078Z,102569.13
2024-02-19T11:44:40.148Z,102574.56
2024-02-19T11:47:08.950Z,102569.34
2024-02-19T11:49:35.758Z,102558.84
2024-02-19T11:52:08.365Z,102556.16
2024-02-19T11:54:39.794Z,102555.97
2024-02-19T11:57:08.573Z,102552.25
2024-02-19T11:59:36.757Z,102551.41
2024-02-19T12:02:04.628Z,102549.34
2024-02-19T12:04:35.807Z,102549.34
2024-02-19T12:07:02.429Z,102548.72
2024-02-19T12:09:29.012Z,102545.50
2024-02-19T12:11:55.566Z,102546.72
2024-02-19T12:14:22.057Z,102527.13
2024-02-19T12:16:48.556Z,102524.63
2024-02-19T12:19:15.076Z,102536.09
2024-02-19T12:21:43.530Z,102534.03
2024-02-19T12:24:11.985Z,102528.44
2024-02-19T12:26:39.356Z,102527.69
2024-02-19T12:29:05.994Z,102541.53
2024-02-19T12:31:32.559Z,102526.13
2024-02-19T12:33:59.483Z,102536.13
2024-02-19T12:36:26.165Z,102523.22
2024-02-19T12:38:54.035Z,102516.22
2024-02-19T12:41:20.635Z,102518.53
2024-02-19T12:43:47.151Z,102517.06
2024-02-19T12:46:15.726Z,102511.25
2024-02-19T12:48:46.183Z,102507.53
2024-02-19T12:51:16.297Z,102496.78
2024-02-19T12:53:43.837Z,102500.59
2024-02-19T12:56:10.691Z,102498.19
2024-02-19T12:58:37.330Z,102494.16
2024-02-19T13:01:09.679Z,102489.69
2024-02-19T13:03:43.918Z,102483.34
2024-02-19T13:06:15.665Z,102483.34
2024-02-19T13:08:45.220Z,102476.72
2024-02-19T13:11:11.971Z,102487.19
2024-02-19T13:13:38.569Z,102482.59
2024-02-19T13:16:05.757Z,102477.75
2024-02-19T13:18:33.126Z,102476.44
2024-02-19T13:20:59.691Z,102474.88
2024-02-19T13:23:26.508Z,102476.47
2024-02-19T13:25:52.988Z,102474.69
2024-02-19T13:28:19.593Z,102485.25
2024-02-19T13:30:46.299Z,102485.78
2024-02-19T13:33:12.926Z,102486.16
2024-02-19T13:35:39.614Z,102481.97
2024-02-19T13:38:06.316Z,102485.25
2024-02-19T13:40:32.878Z,102482.69
2024-02-19T13:43:00.064Z,102485.97
2024-02-19T13:45:29.702Z,102487.56
2024-02-19T13:48:00.789Z,102478.69
2024-02-19T13:50:27.606Z,102484.84
2024-02-19T13:52:54.274Z,102489.78
2024-02-19T13:55:21.069Z,102489.13
2024-02-19T13:57:47.870Z,102487.78
2024-02-19T14:00:16.657Z,102483.13
2024-02-19T14:02:43.221Z,102483.69
2024-02-19T14:05:09.795Z,102478.16
2024-02-19T14:07:36.380Z,102487.28
2024-02-19T14:10:05.775Z,102483.56
2024-02-19T14:12:32.302Z,102477.50
2024-02-19T14:14:58.785Z,102482.91
2024-02-19T14:17:25.285Z,102484.13
2024-02-19T14:19:52.618Z,102486.34
2024-02-19T14:22:19.261Z,102485.00
2024-02-19T14:24:45.926Z,102474.56
2024-02-19T14:27:12.474Z,102471.22
2024-02-19T14:29:39.236Z,102471.59
2024-02-19T14:32:06.778Z,102468.94
2024-02-19T14:34:34.037Z,102476.03
2024-02-19T14:37:00.935Z,102470.16
2024-02-19T14:39:28.219Z,102478.44
2024-02-19T14:41:54.779Z,102477.13
2024-02-19T14:44:21.864Z,102477.50
2024-02-19T14:46:54.290Z,102475.81
2024-02-19T14:49:24.658Z,102477.81
2024-02-19T14:51:51.365Z,102469.72
2024-02-19T14:54:18.492Z,102476.16
2024-02-19T14:56:45.085Z,102475.69
2024-02-19T14:59:11.626Z,102478.56
2024-02-19T15:01:38.484Z,102472.97
2024-02-19T15:04:05.479Z,102472.78
2024-02-19T15:06:32.350Z,102478.84
2024-02-19T15:08:58.931Z,102477.69
2024-02-19T15:11:25.404Z,102471.91
2024-02-19T15:13:52.588Z,102477.31
2024-02-19T15:16:19.518Z,102467.34
2024-02-19T15:18:46.385Z,102464.63
2024-02-19T15:21:12.949Z,102470.22
2024-02-19T15:23:41.132Z,102471.44
2024-02-19T15:26:11.707Z,102473.28
2024-02-19T15:28:38.998Z,102456.22
2024-02-19T15:31:05.612Z,102471.78
2024-02-19T15:33:32.186Z,102471.47
2024-02-19T15:35:59.853Z,102470.16
2024-02-19T15:38:26.388Z,102463.91
2024-02-19T15:40:52.918Z,102469.31
2024-02-19T15:43:19.895Z,102465.97
2024-02-19T15:45:47.651Z,102472.38
2024-02-19T15:48:14.442Z,102469.69
2024-02-19T15:50:41.127Z,102470.88
2024-02-19T15:53:13.178Z,102469.84
2024-02-19T15:55:45.071Z,102470.88
2024-02-19T15:58:11.613Z,102462.28
2024-02-19T16:00:41.575Z,102460.44
2024-02-19T16:03:08.888Z,102465.47
2024-02-19T16:05:35.522Z,102461.75
2024-02-19T16:08:06.184Z,102465.13
2024-02-19T16:10:32.826Z,102470.69
2024-02-19T16:12:59.590Z,102467.13
2024-02-19T16:15:26.085Z,102468.53
2024-02-19T16:17:52.620Z,102469.53
2024-02-19T16:20:19.121Z,102466.19
2024-02-19T16:22:47.865Z,102463.84
2024-02-19T16:25:14.482Z,102464.03
2024-02-19T16:27:41.073Z,102471.28
2024-02-19T16:30:10.313Z,102461.84
2024-02-19T16:32:37.302Z,102470.13
2024-02-19T16:35:04.241Z,102473.00
2024-02-19T16:37:30.931Z,102473.19
2024-02-19T16:39:57.770Z,102467.97
2024-02-19T16:42:24.219Z,102470.66
2024-02-19T16:44:50.662Z,102474.41
2024-02-19T16:47:17.242Z,102474.56
2024-02-19T16:49:46.045Z,102480.81
2024-02-19T16:52:13.534Z,102482.50
2024-02-19T16:54:40.173Z,102487.41
2024-02-19T16:57:06.621Z,102499.41
2024-02-19T16:59:33.055Z,102494.34
2024-02-19T17:01:59.820Z,102499.06
2024-02-19T17:04:26.540Z,102501.13
2024-02-19T17:06:54.879Z,102505.84
2024-02-19T17:09:21.551Z,102509.56
2024-02-19T17:11:47.982Z,102524.09
2024-02-19T17:14:15.170Z,102520.72
2024-02-19T17:16:41.666Z,102513.66
2024-02-19T17:19:08.278Z,102528.16
2024-02-19T17:21:37.541Z,102530.69
2024-02-19T17:24:04.242Z,102540.94
2024-02-19T17:26:31.904Z,102540.13
2024-02-19T17:28:58.392Z,102542.13
2024-02-19T17:31:28.164Z,102556.63
2024-02-19T17:33:54.905Z,102548.72
2024-02-19T17:36:21.385Z,102554.47
2024-02-19T17:38:47.854Z,102560.69
2024-02-19T17:41:14.308Z,102559.84
2024-02-19T17:43:41.071Z,102568.13
2024-02-19T17:46:07.625Z,102557.69
2024-02-19T17:48:36.667Z,102562.75
2024-02-19T17:51:04.487Z,102564.47
2024-02-19T17:53:30.971Z,102568.53
2024-02-19T17:55:57.433Z,102574.09
2024-02-19T17:58:25.559Z,102567.84
2024-02-19T18:00:52.320Z,102574.41
2024-02-19T18:03:19.365Z,102581.00
2024-02-19T18:05:45.957Z,102588.94
2024-02-19T18:08:13.165Z,102585.88
2024-02-19T18:10:39.782Z,102586.22
2024-02-19T18:13:08.115Z,102587.75
2024-02-19T18:15:34.819Z,102592.84
2024-02-19T18:18:04.088Z,102593.31
2024-02-19T18:20:31.334Z,102607.31
2024-02-19T18:22:58.468Z,102604.78
2024-02-19T18:25:24.938Z,102605.13
2024-02-19T18:27:51.692Z,102607.47
2024-02-19T18:30:18.731Z,102604.44
2024-02-19T18:32:45.264Z,102601.41
2024-02-19T18:35:11.901Z,102608.81
2024-02-19T18:37:38.636Z,102608.81
2024-02-19T18:40:08.231Z,102611.50
2024-02-19T18:42:35.250Z,102623.44
2024-02-19T18:45:03.480Z,102615.88
2024-02-19T18:47:29.971Z,102623.09
2024-02-19T18:49:56.669Z,102630.69
2024-02-19T18:52:23.423Z,102632.22
2024-02-19T18:54:50.067Z,102624.66
2024-02-19T18:57:16.603Z,102617.25
2024-02-19T18:59:44.672Z,102631.38
2024-02-19T19:02:11.240Z,102628.53
2024-02-19T19:04:38.579Z,102631.88
2024-02-19T19:07:07.446Z,102636.09
2024-02-19T19:09:40.488Z,102636.94
2024-02-19T19:12:11.866Z,102633.25
2024-02-19T19:14:39.477Z,102634.94
2024-02-19T19:17:07.182Z,102642.03
2024-02-19T19:19:34.954Z,102645.56
2024-02-19T19:22:03.538Z,102646.41
2024-02-19T19:24:30.751Z,102646.56
2024-02-19T19:26:57.435Z,102645.56
2024-02-19T19:29:24.758Z,102648.25
2024-02-19T19:31:51.385Z,102655.50
2024-02-19T19:34:18.130Z,102661.06
2024-02-19T19:36:44.611Z,102665.75
2024-02-19T19:39:12.177Z,102664.22
2024-02-19T19:41:39.252Z,102663.72
2024-02-19T19:44:12.043Z,102666.94
2024-02-19T19:46:39.104Z,102662.38
2024-02-19T19:49:05.995Z,102662.38
2024-02-19T19:51:32.535Z,102661.53
2024-02-19T19:53:59.539Z,102666.09
2024-02-19T19:56:26.071Z,102659.69
2024-02-19T19:58:54.909Z,102655.31
2024-02-19T20:01:22.451Z,102669.78
2024-02-19T20:03:50.742Z,102669.13
2024-02-19T20:06:17.985Z,102667.41
2024-02-19T20:08:48.806Z,102667.06
2024-02-19T20:11:15.537Z,102669.09
2024-02-19T20:13:42.097Z,102669.41
2024-02-19T20:16:08.616Z,102673.44
2024-02-19T20:18:36.314Z,102671.78
2024-02-19T20:21:04.220Z,102681.16
2024-02-19T20:23:31.550Z,102684.03
2024-02-19T20:25:58.776Z,102680.81
2024-02-19T20:28:25.256Z,102688.38
2024-02-19T20:30:54.249Z,102689.84
2024-02-19T20:33:20.843Z,102695.56
2024-02-19T20:35:47.592Z,102693.53
2024-02-19T20:38:14.039Z,102689.16
2024-02-19T20:40:40.498Z,102700.78
2024-02-19T20:43:07.100Z,102699.09
2024-02-19T20:45:33.864Z,102697.41
2024-02-19T20:48:00.476Z,102703.63
2024-02-19T20:50:27.047Z,102698.25
2024-02-19T20:52:57.322Z,102700.25
2024-02-19T20:55:24.200Z,102708.47
2024-02-19T20:57:51.230Z,102709.97
2024-02-19T21:00:18.794Z,102709.47
2024-02-19T21:02:45.209Z,102710.91
2024-02-19T21:05:20.450Z,102709.56
2024-02-19T21:07:49.912Z,102704.66
2024-02-19T21:10:16.578Z,102710.88
2024-02-19T21:12:43.547Z,102707.69
2024-02-19T21:15:14.564Z,102720.75
2024-02-19T21:17:41.236Z,102719.06
2024-02-19T21:20:10.602Z,102726.28
2024-02-19T21:22:37.336Z,102728.31
2024-02-19T21:25:04.121Z,102728.31
2024-02-19T21:27:31.820Z,102732.31
2024-02-19T21:29:58.404Z,102725.56
2024-02-19T21:32:26.883Z,102719.78
2024-02-19T21:34:53.796Z,102732.88
2024-02-19T21:37:20.453Z,102733.69
2024-02-19T21:39:47.005Z,102738.97
2024-02-19T21:42:20.492Z,102736.25
2024-02-19T21:44:49.750Z,102732.63
2024-02-19T21:47:16.251Z,102728.56
2024-02-19T21:49:42.812Z,102732.84
2024-02-19T21:52:09.393Z,102732.59
2024-02-19T21:54:35.916Z,102742.97
2024-02-19T21:57:02.391Z,102740.03
2024-02-19T21:59:28.908Z,102739.66
2024-02-19T22:01:55.495Z,102739.72
2024-02-19T22:04:22.222Z,102739.63
2024-02-19T22:06:48.826Z,102735.00
2024-02-19T22:09:15.410Z,102738.31
2024-02-19T22:11:45.266Z,102739.59
2024-02-19T22:14:11.832Z,102746.25
2024-02-19T22:16:38.331Z,102749.25
2024-02-19T22:19:04.869Z,102750.53
2024-02-19T22:21:31.952Z,102756.09
2024-02-19T22:23:58.630Z,102756.28
2024-02-19T22:26:25.098Z,102757.56
2024-02-19T22:28:52.324Z,102768.59
2024-02-19T22:31:18.949Z,102763.84
2024-02-19T22:33:45.492Z,102772.16
2024-02-19T22:36:12.029Z,102768.06
2024-02-19T22:38:39.064Z,102775.44
2024-02-19T22:41:05.796Z,102772.75
2024-02-19T22:43:32.448Z,102778.25
2024-02-19T22:45:59.000Z,102773.19
2024-02-19T22:48:25.731Z,102775.19
2024-02-19T22:50:52.296Z,102781.38
2024-02-19T22:53:19.485Z,102774.34
2024-02-19T22:55:46.220Z,102775.28
2024-02-19T22:58:17.788Z,102779.69
2024-02-19T23:00:49.582Z,102776.03
2024-02-19T23:03:16.126Z,102776.03
2024-02-19T23:05:42.690Z,102777.13
2024-02-19T23:08:09.204Z,102772.91
2024-02-19T23:10:35.758Z,102772.22
2024-02-19T23:13:02.979Z,102766.84
2024-02-19T23:15:29.524Z,102769.53
2024-02-19T23:17:56.216Z,102772.22
2024-02-19T23:20:23.787Z,102773.19
2024-02-19T23:22:50.500Z,102777.72
2024-02-19T23:25:17.218Z,102778.16
2024-02-19T23:27:43.660Z,102777.47
2024-02-19T23:30:10.477Z,102784.81
2024-02-19T23:32:37.099Z,102786.50
2024-02-19T23:35:06.089Z,102786.50
2024-02-19T23:37:33.105Z,102789.88
2024-02-19T23:39:59.958Z,102790.19
2024-02-19T23:42:27.279Z,102789.75
2024-02-19T23:44:53.839Z,102786.50
2024-02-19T23:47:20.654Z,102790.03
2024-02-19T23:49:47.214Z,102782.00
2024-02-19T23:52:13.904Z,102779.44
2024-02-19T23:54:41.187Z,102788.34
2024-02-19T23:57:08.691Z,102783.97
2024-02-19T23:59:35.710Z,102794.13
